createdAt,value
2022-12-11T00:00:26.395Z,2.86
2022-12-11T00:01:32.734Z,2.89
2022-12-11T00:02:38.610Z,2.92
2022-12-11T00:03:48.305Z,2.88
2022-12-11T00:15:42.278Z,2.27
2022-12-11T00:16:49.708Z,2.22
2022-12-11T00:17:56.121Z,2.27
2022-12-11T00:19:03.703Z,2.33
2022-12-11T00:20:10.824Z,2.34
2022-12-11T00:21:15.768Z,2.36
2022-12-11T00:22:20.070Z,2.39
2022-12-11T00:23:23.463Z,2.34
2022-12-11T00:24:27.001Z,2.42
2022-12-11T00:25:30.336Z,2.46
2022-12-11T00:26:34.405Z,2.48
2022-12-11T00:27:38.062Z,2.51
2022-12-11T00:28:43.014Z,2.51
2022-12-11T00:29:46.649Z,2.55
2022-12-11T00:30:50.163Z,2.56
2022-12-11T00:31:53.839Z,2.58
2022-12-11T00:32:57.271Z,2.63
2022-12-11T00:34:02.799Z,2.60
2022-12-11T00:35:06.772Z,2.63
2022-12-11T00:36:30.887Z,2.65
2022-12-11T00:37:34.524Z,2.62
2022-12-11T00:38:37.966Z,2.61
2022-12-11T00:39:41.711Z,2.65
2022-12-11T00:40:46.422Z,2.67
2022-12-11T00:41:51.659Z,2.71
2022-12-11T00:42:55.773Z,2.67
2022-12-11T00:43:59.098Z,2.71
2022-12-11T00:45:02.431Z,2.72
2022-12-11T00:46:05.940Z,2.72
2022-12-11T00:47:09.338Z,2.71
2022-12-11T00:48:13.882Z,2.75
2022-12-11T00:49:17.699Z,2.74
2022-12-11T00:50:21.139Z,2.78
2022-12-11T00:51:25.945Z,2.82
2022-12-11T00:52:29.294Z,2.84
2022-12-11T00:53:33.549Z,2.83
2022-12-11T00:54:36.870Z,2.86
2022-12-11T00:55:43.072Z,2.89
2022-12-11T00:56:46.395Z,2.88
2022-12-11T00:57:52.501Z,2.90
2022-12-11T00:58:56.729Z,2.92
2022-12-11T01:00:00.143Z,2.85
2022-12-11T01:01:15.137Z,2.86
2022-12-11T01:02:18.548Z,2.90
2022-12-11T01:03:22.075Z,2.88
2022-12-11T01:04:25.707Z,2.84
2022-12-11T01:05:29.522Z,2.87
2022-12-11T01:06:32.928Z,2.86
2022-12-11T01:07:36.467Z,2.84
2022-12-11T01:08:39.818Z,2.85
2022-12-11T01:10:02.005Z,2.82
2022-12-11T01:11:12.965Z,2.82
2022-12-11T01:12:17.105Z,2.85
2022-12-11T01:13:20.819Z,2.82
2022-12-11T01:14:24.140Z,2.81
2022-12-11T01:15:43.733Z,2.88
2022-12-11T01:16:47.190Z,2.87
2022-12-11T01:17:52.460Z,2.86
2022-12-11T01:18:57.690Z,2.90
2022-12-11T01:20:01.060Z,2.86
2022-12-11T01:21:14.137Z,2.92
2022-12-11T01:22:17.512Z,2.90
2022-12-11T01:23:20.976Z,2.92
2022-12-11T01:24:24.463Z,2.95
2022-12-11T01:25:29.483Z,2.96
2022-12-11T01:26:33.027Z,2.97
2022-12-11T01:27:37.836Z,2.95
2022-12-11T01:28:42.549Z,2.97
2022-12-11T01:29:46.021Z,3.02
2022-12-11T01:30:49.390Z,3.04
2022-12-11T01:31:53.058Z,3.00
2022-12-11T01:32:56.470Z,3.03
2022-12-11T01:34:01.207Z,2.97
2022-12-11T01:35:07.841Z,2.94
2022-12-11T01:36:18.471Z,2.94
2022-12-11T01:37:21.978Z,2.95
2022-12-11T01:38:25.492Z,2.96
2022-12-11T01:39:28.877Z,2.94
2022-12-11T01:40:32.871Z,2.93
2022-12-11T01:41:36.385Z,2.91
2022-12-11T01:42:40.116Z,2.91
2022-12-11T01:44:05.504Z,2.83
2022-12-11T01:45:30.415Z,2.86
2022-12-11T01:46:37.947Z,2.87
2022-12-11T01:47:45.309Z,2.87
2022-12-11T01:48:48.799Z,2.87
2022-12-11T01:49:52.160Z,2.83
2022-12-11T01:51:03.350Z,2.82
2022-12-11T01:52:15.600Z,2.83
2022-12-11T01:53:35.531Z,2.84
2022-12-11T01:54:39.325Z,2.83
2022-12-11T01:55:44.615Z,2.76
2022-12-11T01:56:52.097Z,2.80
2022-12-11T01:57:55.669Z,2.82
2022-12-11T01:59:07.561Z,2.81
2022-12-11T02:00:12.610Z,2.74
2022-12-11T02:01:29.881Z,2.69
2022-12-11T02:02:34.140Z,2.73
2022-12-11T02:03:37.846Z,2.71
2022-12-11T02:04:43.379Z,2.70
2022-12-11T02:05:47.572Z,2.65
2022-12-11T02:06:53.739Z,2.67
2022-12-11T02:08:02.446Z,2.66
2022-12-11T02:09:12.388Z,2.65
2022-12-11T02:10:16.639Z,2.61
2022-12-11T02:11:35.478Z,2.59
2022-12-11T02:13:07.692Z,2.56
2022-12-11T02:14:34.646Z,2.53
2022-12-11T02:15:52.250Z,2.55
2022-12-11T02:17:26.087Z,2.49
2022-12-11T02:18:45.097Z,2.43
2022-12-11T02:20:04.132Z,2.45
2022-12-11T02:21:26.722Z,2.45
2022-12-11T02:23:09.609Z,2.48
2022-12-11T02:24:36.978Z,2.54
2022-12-11T02:26:34.236Z,2.57
2022-12-11T02:27:57.602Z,2.58
2022-12-11T02:29:13.361Z,2.59
2022-12-11T02:30:17.668Z,2.52
2022-12-11T02:31:27.657Z,2.53
2022-12-11T02:32:43.921Z,2.49
2022-12-11T02:34:18.200Z,2.51
2022-12-11T02:35:57.562Z,2.52
2022-12-11T02:37:13.573Z,2.57
2022-12-11T02:38:34.329Z,2.57
2022-12-11T02:39:43.147Z,2.49
2022-12-11T02:40:50.380Z,2.56
2022-12-11T02:41:56.555Z,2.59
2022-12-11T02:43:06.652Z,2.60
2022-12-11T02:44:15.086Z,2.60
2022-12-11T02:45:20.237Z,2.58
2022-12-11T02:46:26.811Z,2.57
2022-12-11T02:47:33.406Z,2.58
2022-12-11T02:48:39.258Z,2.64
2022-12-11T02:49:47.508Z,2.66
2022-12-11T02:50:57.840Z,2.67
2022-12-11T02:52:05.304Z,2.65
2022-12-11T02:53:13.000Z,2.64
2022-12-11T02:54:27.605Z,2.61
2022-12-11T02:55:36.833Z,2.65
2022-12-11T02:57:04.975Z,2.56
2022-12-11T02:58:29.543Z,2.45
2022-12-11T02:59:39.067Z,2.49
2022-12-11T03:02:20.653Z,2.44
2022-12-11T03:03:25.592Z,2.41
2022-12-11T03:04:31.105Z,2.46
2022-12-11T03:05:35.742Z,2.39
2022-12-11T03:06:53.902Z,2.37
2022-12-11T03:07:57.862Z,2.37
2022-12-11T03:09:01.791Z,2.35
2022-12-11T03:10:09.317Z,2.34
2022-12-11T03:11:13.770Z,2.38
2022-12-11T03:12:27.663Z,2.31
2022-12-11T03:13:31.902Z,2.25
2022-12-11T03:14:37.433Z,2.25
2022-12-11T03:15:59.146Z,2.28
2022-12-11T03:17:21.590Z,2.20
2022-12-11T03:18:42.820Z,2.18
2022-12-11T03:20:08.508Z,2.18
2022-12-11T03:21:33.420Z,2.19
2022-12-11T03:22:47.462Z,2.19
2022-12-11T03:24:20.212Z,2.26
2022-12-11T03:25:35.955Z,2.33
2022-12-11T03:27:01.044Z,2.36
2022-12-11T03:28:21.185Z,2.39
2022-12-11T03:29:34.936Z,2.38
2022-12-11T03:30:42.531Z,2.41
2022-12-11T03:32:08.489Z,2.45
2022-12-11T03:33:19.598Z,2.42
2022-12-11T03:34:38.468Z,2.45
2022-12-11T03:35:56.935Z,2.35
2022-12-11T03:37:03.220Z,2.37
2022-12-11T03:38:16.516Z,2.42
2022-12-11T03:39:32.217Z,2.45
2022-12-11T03:40:40.271Z,2.40
2022-12-11T03:41:47.117Z,2.43
2022-12-11T03:42:54.563Z,2.46
2022-12-11T03:43:59.479Z,2.45
2022-12-11T03:45:06.508Z,2.41
2022-12-11T03:46:14.780Z,2.44
2022-12-11T03:47:24.385Z,2.39
2022-12-11T03:48:37.087Z,2.35
2022-12-11T03:49:45.465Z,2.32
2022-12-11T03:50:51.026Z,2.34
2022-12-11T03:51:59.859Z,2.42
2022-12-11T03:53:06.035Z,2.39
2022-12-11T03:54:11.943Z,2.41
2022-12-11T03:55:21.269Z,2.42
2022-12-11T03:56:30.524Z,2.43
2022-12-11T03:57:38.576Z,2.45
2022-12-11T03:58:43.348Z,2.49
2022-12-11T03:59:47.597Z,2.53
2022-12-11T04:00:51.196Z,2.49
2022-12-11T04:01:55.203Z,2.52
2022-12-11T04:03:14.823Z,2.49
2022-12-11T04:04:19.579Z,2.53
2022-12-11T04:05:23.397Z,2.54
2022-12-11T04:06:27.661Z,2.54
2022-12-11T04:07:31.443Z,2.49
2022-12-11T04:08:35.233Z,2.43
2022-12-11T04:09:39.443Z,2.41
2022-12-11T04:10:43.424Z,2.37
2022-12-11T04:11:47.287Z,2.36
2022-12-11T04:12:51.496Z,2.37
2022-12-11T04:14:14.192Z,2.33
2022-12-11T04:15:18.029Z,2.28
2022-12-11T04:16:21.606Z,2.31
2022-12-11T04:17:43.769Z,2.29
2022-12-11T04:19:05.960Z,2.29
2022-12-11T04:20:30.032Z,2.20
2022-12-11T04:21:53.547Z,2.16
2022-12-11T04:23:15.982Z,2.19
2022-12-11T04:24:19.627Z,2.17
2022-12-11T04:25:23.356Z,2.26
2022-12-11T04:26:27.498Z,2.27
2022-12-11T04:27:57.849Z,2.21
2022-12-11T04:29:01.466Z,2.25
2022-12-11T04:30:10.958Z,2.24
2022-12-11T04:31:22.216Z,2.29
2022-12-11T04:32:26.332Z,2.35
2022-12-11T04:33:31.165Z,2.34
2022-12-11T04:34:34.923Z,2.33
2022-12-11T04:35:38.778Z,2.32
2022-12-11T04:36:43.491Z,2.32
2022-12-11T04:37:47.893Z,2.29
2022-12-11T04:38:51.857Z,2.29
2022-12-11T04:39:55.812Z,2.22
2022-12-11T04:41:06.420Z,2.22
2022-12-11T04:42:10.341Z,2.22
2022-12-11T04:43:14.534Z,2.25
2022-12-11T04:44:18.557Z,2.24
2022-12-11T04:45:22.282Z,2.09
2022-12-11T04:46:26.180Z,2.10
2022-12-11T04:47:29.988Z,2.08
2022-12-11T04:48:35.041Z,2.11
2022-12-11T04:49:38.993Z,2.02
2022-12-11T04:50:42.649Z,2.04
2022-12-11T04:51:46.205Z,2.04
2022-12-11T04:52:49.809Z,2.09
2022-12-11T04:53:54.304Z,2.06
2022-12-11T04:54:58.108Z,2.08
2022-12-11T04:56:02.309Z,2.09
2022-12-11T04:57:06.048Z,2.12
2022-12-11T04:58:09.595Z,2.20
2022-12-11T04:59:13.133Z,2.09
2022-12-11T05:00:17.551Z,2.10
2022-12-11T05:01:23.355Z,2.11
2022-12-11T05:02:27.207Z,2.09
2022-12-11T05:03:30.797Z,2.13
2022-12-11T05:04:36.172Z,2.11
2022-12-11T05:05:40.030Z,2.07
2022-12-11T05:06:43.947Z,2.12
2022-12-11T05:07:48.072Z,2.15
2022-12-11T05:08:51.658Z,2.17
2022-12-11T05:09:55.472Z,2.10
2022-12-11T05:11:02.871Z,2.08
2022-12-11T05:12:07.086Z,2.09
2022-12-11T05:13:10.870Z,2.03
2022-12-11T05:14:14.533Z,2.10
2022-12-11T05:15:18.553Z,2.08
2022-12-11T05:16:22.604Z,2.08
2022-12-11T05:17:26.462Z,2.15
2022-12-11T05:18:30.146Z,2.20
2022-12-11T05:19:34.493Z,2.14
2022-12-11T05:20:38.123Z,2.05
2022-12-11T05:21:41.949Z,2.13
2022-12-11T05:22:46.085Z,2.18
2022-12-11T05:23:49.843Z,2.15
2022-12-11T05:24:53.574Z,2.19
2022-12-11T05:26:00.693Z,2.18
2022-12-11T05:27:04.736Z,2.24
2022-12-11T05:28:08.428Z,2.20
2022-12-11T05:29:12.455Z,2.20
2022-12-11T05:30:16.381Z,2.21
2022-12-11T05:31:24.850Z,2.27
2022-12-11T05:32:29.656Z,2.30
2022-12-11T05:33:34.431Z,2.31
2022-12-11T05:34:38.249Z,2.27
2022-12-11T05:35:48.819Z,2.32
2022-12-11T05:36:52.777Z,2.31
2022-12-11T05:37:58.415Z,2.31
2022-12-11T05:39:04.153Z,2.35
2022-12-11T05:40:08.805Z,2.34
2022-12-11T05:41:16.713Z,2.31
2022-12-11T05:42:25.543Z,2.25
2022-12-11T05:43:36.264Z,2.31
2022-12-11T05:44:39.790Z,2.25
2022-12-11T05:45:44.335Z,2.19
2022-12-11T05:46:48.148Z,2.17
2022-12-11T05:47:51.923Z,2.17
2022-12-11T05:48:59.487Z,2.12
2022-12-11T05:50:03.109Z,2.18
2022-12-11T05:51:08.844Z,2.22
2022-12-11T05:52:12.494Z,2.19
2022-12-11T05:53:16.400Z,2.17
2022-12-11T05:54:20.534Z,2.18
2022-12-11T05:55:24.037Z,2.21
2022-12-11T05:56:32.223Z,2.16
2022-12-11T05:57:36.048Z,2.18
2022-12-11T05:58:41.519Z,2.15
2022-12-11T05:59:45.921Z,2.15
2022-12-11T06:00:50.030Z,2.16
2022-12-11T06:01:53.719Z,2.13
2022-12-11T06:02:57.583Z,2.12
2022-12-11T06:04:04.886Z,2.02
2022-12-11T06:05:09.215Z,1.97
2022-12-11T06:06:13.740Z,1.97
2022-12-11T06:07:17.917Z,1.99
2022-12-11T06:08:21.656Z,1.93
2022-12-11T06:09:25.455Z,1.87
2022-12-11T06:10:29.312Z,1.90
2022-12-11T06:11:35.088Z,1.91
2022-12-11T06:12:38.742Z,1.90
2022-12-11T06:13:42.423Z,1.89
2022-12-11T06:14:46.277Z,1.94
2022-12-11T06:15:50.538Z,1.88
2022-12-11T06:16:54.226Z,1.88
2022-12-11T06:17:57.959Z,1.90
2022-12-11T06:19:01.899Z,1.89
2022-12-11T06:20:06.641Z,1.82
2022-12-11T06:21:28.466Z,1.86
2022-12-11T06:22:32.681Z,1.78
2022-12-11T06:23:36.280Z,1.80
2022-12-11T06:24:39.999Z,1.79
2022-12-11T06:25:44.119Z,1.82
2022-12-11T06:26:51.509Z,1.81
2022-12-11T06:27:55.097Z,1.80
2022-12-11T06:28:59.734Z,1.73
2022-12-11T06:30:04.159Z,1.74
2022-12-11T06:31:08.582Z,1.77
2022-12-11T06:32:12.957Z,1.83
2022-12-11T06:33:16.448Z,1.76
2022-12-11T06:34:20.157Z,1.81
2022-12-11T06:35:24.111Z,1.73
2022-12-11T06:36:27.936Z,1.76
2022-12-11T06:37:31.704Z,1.66
2022-12-11T06:38:35.975Z,1.72
2022-12-11T06:39:39.857Z,1.75
2022-12-11T06:40:44.553Z,1.76
2022-12-11T06:41:48.689Z,1.70
2022-12-11T06:42:52.419Z,1.68
2022-12-11T06:43:56.276Z,1.72
2022-12-11T06:45:00.894Z,1.74
2022-12-11T06:46:06.808Z,1.77
2022-12-11T06:47:10.981Z,1.76
2022-12-11T06:48:14.634Z,1.69
2022-12-11T06:49:18.378Z,1.75
2022-12-11T06:50:21.862Z,1.81
2022-12-11T06:51:25.488Z,1.84
2022-12-11T06:52:29.852Z,1.89
2022-12-11T06:53:33.445Z,1.94
2022-12-11T06:54:36.926Z,1.94
2022-12-11T06:55:41.806Z,1.85
2022-12-11T06:56:45.494Z,1.79
2022-12-11T06:57:49.500Z,1.83
2022-12-11T06:58:53.472Z,1.80
2022-12-11T06:59:57.038Z,1.85
2022-12-11T07:01:00.932Z,1.85
2022-12-11T07:02:05.292Z,1.75
2022-12-11T07:03:10.410Z,1.81
2022-12-11T07:04:13.981Z,1.82
2022-12-11T07:05:17.548Z,1.86
2022-12-11T07:06:21.317Z,1.84
2022-12-11T07:07:24.941Z,1.79
2022-12-11T07:08:29.809Z,1.76
2022-12-11T07:09:33.421Z,1.83
2022-12-11T07:10:37.027Z,1.75
2022-12-11T07:11:40.515Z,1.77
2022-12-11T07:12:43.985Z,1.70
2022-12-11T07:13:48.388Z,1.73
2022-12-11T07:14:52.038Z,1.76
2022-12-11T07:15:55.511Z,1.78
2022-12-11T07:16:59.425Z,1.81
2022-12-11T07:18:03.033Z,1.76
2022-12-11T07:19:06.749Z,1.84
2022-12-11T07:20:11.572Z,1.85
2022-12-11T07:21:15.592Z,1.82
2022-12-11T07:22:19.102Z,1.78
2022-12-11T07:23:22.657Z,1.78
2022-12-11T07:24:26.448Z,1.69
2022-12-11T07:25:30.107Z,1.75
2022-12-11T07:26:33.674Z,1.78
2022-12-11T07:27:37.164Z,1.78
2022-12-11T07:28:41.487Z,1.83
2022-12-11T07:29:45.313Z,1.83
2022-12-11T07:30:49.334Z,1.89
2022-12-11T07:31:53.340Z,1.88
2022-12-11T07:32:57.135Z,1.90
2022-12-11T07:34:05.825Z,1.91
2022-12-11T07:35:10.732Z,1.86
2022-12-11T07:36:16.414Z,1.85
2022-12-11T07:37:20.207Z,1.83
2022-12-11T07:38:24.033Z,1.88
2022-12-11T07:39:30.891Z,1.94
2022-12-11T07:40:35.107Z,1.92
2022-12-11T07:41:39.419Z,1.88
2022-12-11T07:42:46.281Z,1.89
2022-12-11T07:43:50.611Z,1.88
2022-12-11T07:44:54.424Z,1.91
2022-12-11T07:46:12.181Z,1.96
2022-12-11T07:47:16.126Z,2.02
2022-12-11T07:48:19.871Z,2.05
2022-12-11T07:49:23.751Z,2.04
2022-12-11T07:50:27.450Z,1.99
2022-12-11T07:51:35.715Z,2.02
2022-12-11T07:52:39.563Z,1.86
2022-12-11T07:53:51.180Z,1.88
2022-12-11T07:54:54.905Z,1.88
2022-12-11T07:56:00.494Z,1.89
2022-12-11T07:57:04.896Z,1.84
2022-12-11T07:58:10.568Z,1.91
2022-12-11T07:59:15.953Z,1.91
2022-12-11T08:00:19.938Z,1.89
2022-12-11T08:01:26.904Z,1.93
2022-12-11T08:02:36.793Z,1.90
2022-12-11T08:03:41.511Z,1.93
2022-12-11T08:04:45.160Z,1.92
2022-12-11T08:05:57.229Z,1.88
2022-12-11T08:07:00.990Z,1.78
2022-12-11T08:08:05.341Z,1.76
2022-12-11T08:09:20.379Z,1.73
2022-12-11T08:10:24.713Z,1.68
2022-12-11T08:11:29.509Z,1.68
2022-12-11T08:12:33.182Z,1.70
2022-12-11T08:13:38.138Z,1.72
2022-12-11T08:14:42.528Z,1.74
2022-12-11T08:15:49.173Z,1.68
2022-12-11T08:16:53.097Z,1.67
2022-12-11T08:17:56.759Z,1.69
2022-12-11T08:19:00.821Z,1.69
2022-12-11T08:20:05.618Z,1.71
2022-12-11T08:21:18.721Z,1.67
2022-12-11T08:22:22.691Z,1.61
2022-12-11T08:23:26.595Z,1.68
2022-12-11T08:24:30.476Z,1.68
2022-12-11T08:25:34.145Z,1.78
2022-12-11T08:26:37.831Z,1.75
2022-12-11T08:27:41.424Z,1.82
2022-12-11T08:28:45.264Z,1.83
2022-12-11T08:29:49.043Z,1.77
2022-12-11T08:30:52.775Z,1.71
2022-12-11T08:31:57.225Z,1.70
2022-12-11T08:33:00.961Z,1.72
2022-12-11T08:34:04.597Z,1.62
2022-12-11T08:35:09.168Z,1.53
2022-12-11T08:36:18.869Z,1.55
2022-12-11T08:37:22.514Z,1.56
2022-12-11T08:38:26.024Z,1.55
2022-12-11T08:39:29.647Z,1.52
2022-12-11T08:40:33.209Z,1.58
2022-12-11T08:41:36.826Z,1.60
2022-12-11T08:42:40.742Z,1.60
2022-12-11T08:43:45.017Z,1.64
2022-12-11T08:44:48.568Z,1.70
2022-12-11T08:45:52.240Z,1.69
2022-12-11T08:46:56.008Z,1.69
2022-12-11T08:48:00.968Z,1.74
2022-12-11T08:49:05.039Z,1.76
2022-12-11T08:50:09.429Z,1.78
2022-12-11T08:51:17.282Z,1.71
2022-12-11T08:52:20.828Z,1.63
2022-12-11T08:53:24.975Z,1.62
2022-12-11T08:54:28.498Z,1.64
2022-12-11T08:55:33.492Z,1.67
2022-12-11T08:56:37.009Z,1.62
2022-12-11T08:57:40.613Z,1.57
2022-12-11T08:58:45.303Z,1.58
2022-12-11T08:59:49.122Z,1.61
2022-12-11T09:00:52.911Z,1.56
2022-12-11T09:01:57.191Z,1.57
2022-12-11T09:03:01.446Z,1.62
2022-12-11T09:04:05.242Z,1.56
2022-12-11T09:05:10.170Z,1.55
2022-12-11T09:06:20.353Z,1.50
2022-12-11T09:07:24.693Z,1.51
2022-12-11T09:08:28.599Z,1.47
2022-12-11T09:09:32.481Z,1.51
2022-12-11T09:10:36.372Z,1.46
2022-12-11T09:11:39.937Z,1.55
2022-12-11T09:12:44.111Z,1.54
2022-12-11T09:13:48.788Z,1.53
2022-12-11T09:14:52.825Z,1.55
2022-12-11T09:15:56.751Z,1.62
2022-12-11T09:17:00.385Z,1.67
2022-12-11T09:18:04.875Z,1.56
2022-12-11T09:19:14.263Z,1.57
2022-12-11T09:20:18.342Z,1.54
2022-12-11T09:21:25.941Z,1.59
2022-12-11T09:22:30.100Z,1.61
2022-12-11T09:23:34.105Z,1.60
2022-12-11T09:24:38.966Z,1.73
2022-12-11T09:25:42.907Z,1.80
2022-12-11T09:26:49.938Z,1.76
2022-12-11T09:27:53.885Z,1.70
2022-12-11T09:28:58.709Z,1.64
2022-12-11T09:30:02.822Z,1.66
2022-12-11T09:31:11.836Z,1.54
2022-12-11T09:32:15.639Z,1.37
2022-12-11T09:33:19.668Z,1.37
2022-12-11T09:34:29.122Z,1.27
2022-12-11T09:35:33.488Z,1.21
2022-12-11T09:36:40.633Z,1.17
2022-12-11T09:37:44.624Z,1.17
2022-12-11T09:38:48.340Z,1.12
2022-12-11T09:39:52.739Z,1.11
2022-12-11T09:40:56.939Z,1.14
2022-12-11T09:42:38.047Z,1.27
2022-12-11T09:43:58.029Z,1.28
2022-12-11T09:45:10.514Z,1.36
2022-12-11T09:46:17.698Z,1.38
2022-12-11T09:47:46.602Z,1.43
2022-12-11T09:48:51.465Z,1.48
2022-12-11T09:50:11.542Z,1.51
2022-12-11T09:51:26.736Z,1.53
2022-12-11T09:53:16.912Z,1.52
2022-12-11T09:54:20.921Z,1.40
2022-12-11T09:55:34.308Z,1.41
2022-12-11T09:56:59.802Z,1.38
2022-12-11T09:58:24.471Z,1.37
2022-12-11T10:00:05.819Z,1.51
2022-12-11T10:01:25.189Z,1.53
2022-12-11T10:03:27.708Z,1.57
2022-12-11T10:04:59.428Z,1.60
2022-12-11T10:06:28.564Z,1.67
2022-12-11T10:08:19.419Z,1.64
2022-12-11T10:10:00.420Z,1.62
2022-12-11T10:12:02.660Z,1.62
2022-12-11T10:13:41.668Z,1.64
2022-12-11T10:15:25.531Z,1.71
2022-12-11T10:16:46.218Z,1.80
2022-12-11T10:17:53.897Z,1.83
2022-12-11T10:18:59.990Z,1.89
2022-12-11T10:20:33.724Z,1.96
2022-12-11T10:21:43.199Z,1.96
2022-12-11T10:22:49.822Z,2.04
2022-12-11T10:24:02.335Z,1.96
2022-12-11T10:25:20.453Z,2.03
2022-12-11T10:26:24.770Z,2.09
2022-12-11T10:27:35.734Z,2.12
2022-12-11T10:28:39.359Z,2.13
2022-12-11T10:29:43.677Z,2.13
2022-12-11T10:31:13.319Z,2.05
2022-12-11T10:32:25.462Z,2.11
2022-12-11T10:34:04.358Z,2.12
2022-12-11T10:35:12.894Z,2.10
2022-12-11T10:36:28.280Z,2.18
2022-12-11T10:37:31.830Z,2.21
2022-12-11T10:38:43.546Z,2.21
2022-12-11T13:32:30.471Z,1.68
2022-12-11T13:33:47.118Z,1.63
2022-12-11T13:34:59.206Z,1.61
2022-12-11T13:36:34.322Z,1.60
2022-12-11T13:37:43.408Z,1.48
2022-12-11T13:39:00.042Z,1.54
2022-12-11T13:40:17.856Z,1.57
2022-12-11T13:41:22.032Z,1.66
2022-12-11T13:42:35.335Z,1.60
2022-12-11T13:43:42.732Z,1.58
2022-12-11T13:44:49.310Z,1.60
2022-12-11T13:46:00.064Z,1.63
2022-12-11T13:47:11.264Z,1.60
2022-12-11T13:48:48.176Z,1.51
2022-12-11T13:50:07.731Z,1.44
2022-12-11T13:51:22.494Z,1.50
2022-12-11T13:52:27.817Z,1.54
2022-12-11T13:53:32.162Z,1.47
2022-12-11T13:54:36.630Z,1.35
2022-12-11T13:55:40.258Z,1.32
2022-12-11T13:57:04.022Z,1.42
2022-12-11T13:58:21.128Z,1.30
2022-12-11T13:59:42.027Z,1.28
2022-12-11T14:01:08.926Z,1.08
2022-12-11T14:02:15.876Z,1.11
2022-12-11T14:03:19.674Z,1.14
2022-12-11T14:04:24.825Z,1.21
2022-12-11T14:05:30.093Z,1.24
2022-12-11T14:06:36.558Z,1.21
2022-12-11T14:07:49.657Z,1.25
2022-12-11T14:08:59.439Z,1.23
2022-12-11T14:10:14.241Z,1.25
2022-12-11T14:11:35.143Z,1.29
2022-12-11T14:12:38.774Z,1.27
2022-12-11T14:13:43.659Z,1.26
2022-12-11T14:14:57.103Z,1.28
2022-12-11T14:16:01.841Z,1.29
2022-12-11T14:17:06.361Z,1.28
2022-12-11T14:18:20.601Z,1.36
2022-12-11T14:19:25.313Z,1.39
2022-12-11T14:20:34.362Z,1.41
2022-12-11T14:21:38.282Z,1.41
2022-12-11T14:22:42.390Z,1.43
2022-12-11T14:23:57.653Z,1.44
2022-12-11T14:25:17.292Z,1.45
2022-12-11T14:26:24.551Z,1.43
2022-12-11T14:27:28.954Z,1.46
2022-12-11T14:28:42.955Z,1.38
2022-12-11T14:29:48.130Z,1.32
2022-12-11T14:30:54.255Z,1.13
2022-12-11T14:32:04.992Z,1.06
2022-12-11T14:33:11.444Z,1.01
2022-12-11T14:34:25.635Z,1.09
2022-12-11T14:35:40.428Z,1.06
2022-12-11T14:36:48.128Z,1.12
2022-12-11T14:37:54.534Z,1.09
2022-12-11T14:39:29.159Z,1.04
2022-12-11T14:40:42.474Z,0.94
2022-12-11T14:42:02.606Z,1.02
2022-12-11T14:43:24.786Z,1.09
2022-12-11T14:44:39.978Z,1.11
2022-12-11T14:45:49.712Z,1.05
2022-12-11T14:47:02.978Z,1.07
2022-12-11T14:48:17.235Z,1.05
2022-12-11T14:49:39.141Z,1.04
2022-12-11T14:50:51.083Z,1.04
2022-12-11T14:51:59.042Z,1.04
2022-12-11T14:53:15.755Z,1.03
2022-12-11T14:54:35.799Z,1.00
2022-12-11T14:55:41.500Z,1.02
2022-12-11T14:56:47.577Z,1.04
2022-12-11T14:58:02.289Z,1.08
2022-12-11T14:59:26.894Z,1.14
2022-12-11T15:00:38.079Z,1.17
2022-12-11T15:01:42.111Z,1.14
2022-12-11T15:03:04.158Z,1.08
2022-12-11T15:04:28.805Z,0.99
2022-12-11T15:05:40.632Z,0.90
2022-12-11T15:06:48.630Z,1.00
2022-12-11T15:08:27.327Z,1.04
2022-12-11T15:09:42.584Z,0.93
2022-12-11T15:11:13.053Z,0.97
2022-12-11T15:12:20.649Z,0.92
2022-12-11T15:13:25.599Z,0.92
2022-12-11T15:14:29.888Z,0.97
2022-12-11T15:15:47.953Z,0.85
2022-12-11T15:16:55.118Z,0.78
2022-12-11T15:18:02.082Z,0.78
2022-12-11T15:19:06.351Z,0.71
2022-12-11T15:20:22.773Z,0.71
2022-12-11T15:21:36.162Z,0.70
2022-12-11T15:22:44.768Z,0.76
2022-12-11T15:24:01.152Z,0.71
2022-12-11T15:25:06.060Z,0.66
2022-12-11T15:26:10.759Z,0.68
2022-12-11T15:27:39.824Z,0.65
2022-12-11T15:28:43.718Z,0.70
2022-12-11T15:29:47.561Z,0.76
2022-12-11T15:30:59.829Z,0.83
2022-12-11T15:32:08.705Z,0.83
2022-12-11T15:33:12.258Z,0.82
2022-12-11T15:34:23.589Z,0.80
2022-12-11T15:35:28.684Z,0.82
2022-12-11T15:36:35.717Z,0.87
2022-12-11T15:37:40.430Z,0.78
2022-12-11T15:38:44.511Z,0.72
2022-12-11T15:39:48.667Z,0.74
2022-12-11T15:40:52.224Z,0.72
2022-12-11T15:41:55.827Z,0.74
2022-12-11T15:43:03.669Z,0.66
2022-12-11T15:44:09.558Z,0.72
2022-12-11T15:45:20.349Z,0.74
2022-12-11T15:46:24.643Z,0.75
2022-12-11T15:47:30.949Z,0.76
2022-12-11T15:48:35.080Z,0.79
2022-12-11T15:49:38.763Z,0.77
2022-12-11T15:50:43.280Z,0.75
2022-12-11T15:51:47.097Z,0.70
2022-12-11T15:52:53.726Z,0.65
2022-12-11T15:53:57.272Z,0.61
2022-12-11T15:55:00.861Z,0.57
2022-12-11T15:56:05.045Z,0.51
2022-12-11T15:57:18.207Z,0.58
2022-12-11T15:58:24.474Z,0.55
2022-12-11T15:59:28.495Z,0.50
2022-12-11T16:00:32.478Z,0.58
2022-12-11T16:01:36.174Z,0.64
2022-12-11T16:02:40.200Z,0.64
2022-12-11T16:03:43.874Z,0.70
2022-12-11T16:04:47.786Z,0.60
2022-12-11T16:05:53.603Z,0.63
2022-12-11T16:06:57.873Z,0.68
2022-12-11T16:08:01.911Z,0.62
2022-12-11T16:09:05.862Z,0.67
2022-12-11T16:10:18.061Z,0.74
2022-12-11T16:11:21.800Z,0.74
2022-12-11T16:12:25.626Z,0.67
2022-12-11T16:13:29.806Z,0.75
2022-12-11T16:14:33.617Z,0.72
2022-12-11T16:15:44.996Z,0.70
2022-12-11T16:16:49.046Z,0.72
2022-12-11T16:18:08.551Z,0.69
2022-12-11T16:19:12.696Z,0.75
2022-12-11T16:20:16.445Z,0.74
2022-12-11T16:21:21.674Z,0.68
2022-12-11T16:22:25.455Z,0.70
2022-12-11T16:23:29.758Z,0.71
2022-12-11T16:24:33.574Z,0.73
2022-12-11T16:25:42.963Z,0.77
2022-12-11T16:26:46.760Z,0.80
2022-12-11T16:27:50.611Z,0.80
2022-12-11T16:28:54.606Z,0.71
2022-12-11T16:29:58.448Z,0.62
2022-12-11T16:31:02.677Z,0.60
2022-12-11T16:32:08.731Z,0.57
2022-12-11T16:33:13.992Z,0.65
2022-12-11T16:34:17.661Z,0.68
2022-12-11T16:35:22.741Z,0.75
2022-12-11T16:36:26.531Z,0.82
2022-12-11T16:37:30.192Z,0.83
2022-12-11T16:38:33.665Z,0.86
2022-12-11T16:39:39.262Z,0.91
2022-12-11T16:40:42.881Z,0.92
2022-12-11T16:41:46.876Z,0.96
2022-12-11T16:42:51.382Z,0.92
2022-12-11T16:43:55.370Z,0.89
2022-12-11T16:45:11.568Z,0.79
2022-12-11T16:46:24.923Z,0.78
2022-12-11T16:47:30.563Z,0.80
2022-12-11T16:48:34.297Z,0.74
2022-12-11T16:49:37.861Z,0.76
2022-12-11T16:50:41.495Z,0.69
2022-12-11T16:51:45.745Z,0.68
2022-12-11T16:52:49.600Z,0.57
2022-12-11T16:53:53.653Z,0.57
2022-12-11T16:54:58.010Z,0.64
2022-12-11T16:56:01.593Z,0.58
2022-12-11T16:57:05.891Z,0.62
2022-12-11T16:58:09.793Z,0.67
2022-12-11T16:59:14.148Z,0.70
2022-12-11T17:00:18.111Z,0.72
2022-12-11T17:01:21.781Z,0.65
2022-12-11T17:02:25.683Z,0.66
2022-12-11T17:03:32.553Z,0.67
2022-12-11T17:04:38.036Z,0.74
2022-12-11T17:05:43.758Z,0.70
2022-12-11T17:06:48.825Z,0.66
2022-12-11T17:07:52.597Z,0.61
2022-12-11T17:08:56.291Z,0.61
2022-12-11T17:10:02.058Z,0.60
2022-12-11T17:11:07.985Z,0.60
2022-12-11T17:12:12.099Z,0.64
2022-12-11T17:13:15.937Z,0.64
2022-12-11T17:14:19.406Z,0.64
2022-12-11T17:15:22.978Z,0.60
2022-12-11T17:16:30.482Z,0.62
2022-12-11T17:17:34.027Z,0.56
2022-12-11T17:18:38.404Z,0.59
2022-12-11T17:19:41.998Z,0.54
2022-12-11T17:20:45.966Z,0.58
2022-12-11T17:21:51.703Z,0.61
2022-12-11T17:22:55.548Z,0.56
2022-12-11T17:23:59.116Z,0.59
2022-12-11T17:25:03.365Z,0.59
2022-12-11T17:26:10.957Z,0.59
2022-12-11T17:27:15.127Z,0.64
2022-12-11T17:28:18.863Z,0.65
2022-12-11T17:29:22.604Z,0.60
2022-12-11T17:30:26.210Z,0.61
2022-12-11T17:31:30.265Z,0.65
2022-12-11T17:32:33.990Z,0.62
2022-12-11T17:33:37.969Z,0.59
2022-12-11T17:34:41.855Z,0.46
2022-12-11T17:35:45.678Z,0.50
2022-12-11T17:36:49.690Z,0.51
2022-12-11T17:37:53.269Z,0.53
2022-12-11T17:38:57.232Z,0.50
2022-12-11T17:40:00.881Z,0.45
2022-12-11T17:41:13.114Z,0.41
2022-12-11T17:42:21.317Z,0.41
2022-12-11T17:43:26.483Z,0.47
2022-12-11T17:44:31.343Z,0.48
2022-12-11T17:45:46.048Z,0.50
2022-12-11T17:46:50.056Z,0.47
2022-12-11T17:47:53.725Z,0.49
2022-12-11T17:49:00.205Z,0.55
2022-12-11T17:50:04.620Z,0.61
2022-12-11T17:51:11.946Z,0.52
2022-12-11T17:52:15.882Z,0.50
2022-12-11T17:53:22.016Z,0.41
2022-12-11T17:54:25.667Z,0.45
2022-12-11T17:55:29.419Z,0.49
2022-12-11T17:56:34.913Z,0.36
2022-12-11T17:57:38.717Z,0.35
2022-12-11T17:58:42.607Z,0.38
2022-12-11T17:59:46.503Z,0.44
2022-12-11T18:00:54.477Z,0.38
2022-12-11T18:01:58.270Z,0.43
2022-12-11T18:03:02.683Z,0.42
2022-12-11T18:04:06.643Z,0.48
2022-12-11T18:05:10.673Z,0.55
2022-12-11T18:06:16.426Z,0.55
2022-12-11T18:07:20.682Z,0.58
2022-12-11T18:08:31.349Z,0.62
2022-12-11T18:09:35.375Z,0.62
2022-12-11T18:10:39.072Z,0.57
2022-12-11T18:11:42.652Z,0.61